Time;durP1;ratioP1;P1;durP2;ratioP2;P2;SDS_P1;SDS_P2;PMS_P1;PMS_P2;Temp;Humidity;BMP_temperature;BMP_pressure;BME280_temperature;BME280_humidity;BME280_pressure;Samples;Min_cycle;Max_cycle;Signal;HPM_P1;HPM_P2
2022/01/06 00:01:30;;;;;;;22.45;4.53;;;;;;;5.82;83.05;99994.66;5060398;28;20068;-83
2022/01/06 00:03:57;;;;;;;18.58;4.65;;;;;;;5.79;82.87;100000.78;5060120;28;20068;-83
2022/01/06 00:06:25;;;;;;;17.13;4.85;;;;;;;5.73;81.91;99996.41;5060524;28;20490;-83
2022/01/06 00:08:55;;;;;;;15.02;5.43;;;;;;;5.72;82.80;100005.84;5061234;28;20462;-83
2022/01/06 00:11:24;;;;;;;15.75;5.30;;;;;;;5.62;81.86;100001.25;5060694;28;20049;-82
2022/01/06 00:13:57;;;;;;;19.10;5.68;;;;;;;5.45;81.83;100009.97;5059406;28;20057;-83
2022/01/06 00:16:34;;;;;;;20.90;5.50;;;;;;;5.57;82.41;99996.59;5059973;28;20053;-82
2022/01/06 00:24:32;;;;;;;15.30;4.30;;;;;;;5.29;82.17;100015.66;5060396;28;20064;-82
2022/01/06 00:27:02;;;;;;;16.67;5.03;;;;;;;5.21;82.11;100019.03;5059920;28;20049;-82
2022/01/06 00:29:29;;;;;;;18.23;5.32;;;;;;;5.24;82.63;100012.94;5059415;28;20049;-82
2022/01/06 00:31:56;;;;;;;16.50;4.65;;;;;;;5.25;82.69;100013.78;5058772;28;20518;-81
2022/01/06 00:34:23;;;;;;;13.15;4.13;;;;;;;5.24;82.53;100012.94;5059349;28;20053;-81
2022/01/06 00:36:51;;;;;;;19.33;5.53;;;;;;;5.10;82.96;100014.72;5058627;28;20049;-82
2022/01/06 00:39:18;;;;;;;15.82;5.07;;;;;;;5.17;83.24;100025.44;5058116;28;20053;-82
2022/01/06 00:41:47;;;;;;;17.52;4.53;;;;;;;5.21;83.30;100027.31;5058769;28;20064;-82
2022/01/06 00:44:14;;;;;;;19.33;4.70;;;;;;;5.24;83.32;100020.41;5059878;28;20060;-82
2022/01/06 00:46:41;;;;;;;17.38;4.65;;;;;;;5.22;83.05;100034.47;5059141;28;20057;-81
2022/01/06 00:49:09;;;;;;;22.23;5.53;;;;;;;5.25;82.98;100028.41;5059784;28;20056;-81
2022/01/06 00:51:36;;;;;;;20.10;5.32;;;;;;;5.24;83.13;100037.78;5059853;28;20045;-82
2022/01/06 00:54:04;;;;;;;16.60;5.50;;;;;;;5.29;83.15;100023.94;5058999;28;20493;-82
2022/01/06 00:56:31;;;;;;;19.30;5.97;;;;;;;5.38;82.78;100021.38;5058372;28;20061;-83
2022/01/06 00:59:00;;;;;;;20.70;6.95;;;;;;;5.42;83.25;100027.97;5059335;28;20052;-81
2022/01/06 01:01:27;;;;;;;19.92;6.55;;;;;;;5.42;83.25;100041.78;5058785;28;20056;-81
2022/01/06 01:03:55;;;;;;;22.13;7.00;;;;;;;5.54;83.04;100041.38;5058607;28;20413;-82
2022/01/06 01:06:22;;;;;;;18.05;6.57;;;;;;;5.61;83.25;100044.63;5059060;28;20064;-82
2022/01/06 01:08:50;;;;;;;22.02;6.35;;;;;;;5.56;81.38;100052.13;5058549;28;20064;-82
2022/01/06 01:11:17;;;;;;;17.25;6.90;;;;;;;5.68;82.95;100044.28;5058967;28;20068;-81
2022/01/06 01:13:54;;;;;;;16.23;7.05;;;;;;;5.64;82.80;100049.56;5058894;28;20053;-82
2022/01/06 01:16:28;;;;;;;19.63;7.03;;;;;;;5.73;82.65;100051.69;5058832;28;20119;-82
2022/01/06 01:18:57;;;;;;;24.05;6.78;;;;;;;5.74;82.99;100058.88;5058658;28;20049;-82
2022/01/06 01:21:27;;;;;;;14.60;6.60;;;;;;;5.66;81.25;100060.31;5058661;28;20060;-82
2022/01/06 01:23:55;;;;;;;19.05;6.68;;;;;;;5.67;82.65;100065.56;5057380;28;20836;-82
2022/01/06 01:26:22;;;;;;;15.98;5.95;;;;;;;5.65;82.44;100058.69;5058341;28;20056;-82
2022/01/06 01:28:51;;;;;;;16.42;6.00;;;;;;;5.72;82.35;100058.34;5059006;28;20049;-82
2022/01/06 01:31:25;;;;;;;18.30;5.93;;;;;;;5.71;81.74;100049.19;5058537;28;20422;-81
2022/01/06 01:33:58;;;;;;;16.25;5.43;;;;;;;5.68;81.61;100061.66;5057960;28;20060;-82
2022/01/06 01:36:26;;;;;;;23.10;5.75;;;;;;;5.79;82.64;100064.34;5057334;28;20045;-83
2022/01/06 01:38:54;;;;;;;16.92;5.10;;;;;;;5.82;82.03;100072.06;5058095;28;20068;-82
2022/01/06 01:41:21;;;;;;;18.38;5.25;;;;;;;5.81;81.57;100070.38;5058170;28;20057;-81
2022/01/06 01:43:50;;;;;;;16.75;4.63;;;;;;;5.77;81.70;100074.84;5058310;28;20068;-81
2022/01/06 01:46:20;;;;;;;15.35;5.25;;;;;;;5.77;81.75;100081.19;5058153;28;20056;-82
2022/01/06 01:48:55;;;;;;;16.17;5.10;;;;;;;5.80;82.20;100079.81;5058626;28;20060;-82
2022/01/06 01:51:23;;;;;;;15.95;5.07;;;;;;;5.66;81.01;100072.19;5058014;28;20049;-82
2022/01/06 01:53:51;;;;;;;18.55;5.82;;;;;;;5.69;81.42;100082.69;5057817;28;20052;-82
2022/01/06 01:56:18;;;;;;;20.92;5.00;;;;;;;5.70;81.34;100094.53;5057893;28;20056;-83
2022/01/06 01:58:49;;;;;;;16.50;4.93;;;;;;;5.62;80.85;100087.69;5057839;28;20064;-81
2022/01/06 02:01:16;;;;;;;19.05;4.82;;;;;;;5.65;81.60;100086.31;5058720;28;20044;-82
2022/01/06 02:03:43;;;;;;;14.32;4.45;;;;;;;5.72;81.58;100083.22;5058380;28;20045;-82
2022/01/06 02:06:11;;;;;;;16.88;4.40;;;;;;;5.76;81.04;100092.56;5057088;28;20052;-82
2022/01/06 02:08:40;;;;;;;16.15;4.57;;;;;;;5.72;81.33;100089.56;5057330;28;20069;-82
2022/01/06 02:11:07;;;;;;;19.65;4.85;;;;;;;5.76;81.38;100093.38;5057046;28;20417;-82
2022/01/06 02:13:45;;;;;;;17.13;4.10;;;;;;;5.67;80.58;100097.91;5058180;28;20053;-82
2022/01/06 02:16:13;;;;;;;16.42;4.32;;;;;;;5.65;80.28;100100.13;5060504;28;20521;-82
2022/01/06 02:18:41;;;;;;;17.63;4.88;;;;;;;5.67;80.39;100098.72;5057968;28;20057;-81
2022/01/06 02:21:09;;;;;;;17.25;4.22;;;;;;;5.67;79.95;100095.97;5058830;28;20060;-82
2022/01/06 02:23:37;;;;;;;18.35;4.90;;;;;;;5.68;81.25;100094.81;5057959;28;20053;-81
2022/01/06 02:26:04;;;;;;;18.85;5.22;;;;;;;5.69;81.10;100098.41;5057859;28;20045;-82
2022/01/06 02:28:32;;;;;;;16.45;4.32;;;;;;;5.65;81.03;100106.47;5057995;28;20478;-82
2022/01/06 02:30:59;;;;;;;21.60;5.10;;;;;;;5.52;80.54;100101.59;5057546;28;20178;-82
2022/01/06 02:33:27;;;;;;;18.67;4.88;;;;;;;5.60;80.77;100111.22;5056694;28;20049;-83
2022/01/06 02:35:56;;;;;;;14.05;3.80;;;;;;;5.51;80.26;100118.50;5058129;28;20053;-82
2022/01/06 02:38:25;;;;;;;18.88;4.28;;;;;;;5.39;80.23;100113.31;5057753;28;20044;-82
2022/01/06 02:40:52;;;;;;;19.63;4.85;;;;;;;5.49;80.44;100113.25;5057284;28;20049;-82
2022/01/06 02:43:24;;;;;;;20.95;4.97;;;;;;;5.41;80.75;100111.09;5058452;28;20056;-83
2022/01/06 02:45:53;;;;;;;22.95;5.43;;;;;;;5.44;81.07;100127.13;5058199;28;20048;-82
2022/01/06 02:48:21;;;;;;;18.77;5.05;;;;;;;5.43;80.65;100123.50;5057073;28;20052;-83
2022/01/06 02:50:53;;;;;;;17.08;4.13;;;;;;;5.39;80.13;100130.72;5057359;28;20053;-82
2022/01/06 02:53:21;;;;;;;17.10;5.28;;;;;;;5.45;80.81;100140.63;5061926;28;20049;-82
2022/01/06 02:55:53;;;;;;;17.90;4.82;;;;;;;5.47;81.28;100143.09;5057454;28;20049;-83
2022/01/06 02:58:22;;;;;;;16.42;6.07;;;;;;;5.52;81.77;100144.97;5057398;28;20057;-82
2022/01/06 03:00:50;;;;;;;18.67;4.93;;;;;;;5.52;81.71;100145.81;5057407;28;20594;-82
2022/01/06 03:03:17;;;;;;;16.88;4.32;;;;;;;5.57;81.01;100144.97;5057096;28;20119;-82
2022/01/06 03:05:45;;;;;;;19.65;4.32;;;;;;;5.56;80.54;100146.06;5056964;28;20044;-82
2022/01/06 03:08:12;;;;;;;10.80;3.72;;;;;;;5.54;80.72;100149.09;5057577;28;20060;-82
2022/01/06 03:10:43;;;;;;;18.90;4.40;;;;;;;5.62;80.81;100154.00;5056882;28;20063;-82
2022/01/06 03:13:12;;;;;;;19.38;4.57;;;;;;;5.73;81.65;100159.44;5056939;28;20064;-82
2022/01/06 03:15:39;;;;;;;18.87;4.70;;;;;;;5.59;79.78;100157.38;5057065;28;20140;-82
2022/01/06 03:18:07;;;;;;;16.30;4.35;;;;;;;5.60;79.94;100164.53;5058072;28;20056;-83
2022/01/06 03:20:34;;;;;;;22.05;5.00;;;;;;;5.51;79.75;100159.94;5057365;28;20049;-84
2022/01/06 03:23:04;;;;;;;22.75;4.80;;;;;;;5.46;79.92;100166.31;5057708;28;20082;-83
2022/01/06 03:25:31;;;;;;;19.52;5.43;;;;;;;5.42;80.17;100162.47;5057652;28;20064;-84
2022/01/06 03:27:59;;;;;;;13.57;3.85;;;;;;;5.24;79.71;100166.75;5057411;28;20060;-84
2022/01/06 03:30:28;;;;;;;17.38;4.75;;;;;;;5.21;80.22;100164.56;5058774;28;20509;-83
2022/01/06 03:32:56;;;;;;;20.35;5.35;;;;;;;5.09;79.29;100165.72;5057433;28;20057;-84
2022/01/06 03:35:25;;;;;;;9.70;4.45;;;;;;;5.10;80.03;100172.06;5057995;28;20056;-83
2022/01/06 03:37:53;;;;;;;15.55;5.20;;;;;;;5.15;80.70;100174.00;5059156;28;20123;-84
2022/01/06 03:40:21;;;;;;;15.10;3.70;;;;;;;5.23;80.71;100173.38;5057626;28;20509;-83
2022/01/06 03:42:49;;;;;;;18.58;5.40;;;;;;;5.27;80.35;100178.03;5058042;28;20045;-84
2022/01/06 03:45:19;;;;;;;17.55;5.13;;;;;;;5.32;80.06;100187.41;5058101;28;20045;-84
2022/01/06 03:47:48;;;;;;;18.73;4.78;;;;;;;5.39;80.37;100193.41;5057472;28;20045;-82
2022/01/06 03:50:16;;;;;;;13.25;4.05;;;;;;;5.39;79.71;100188.72;5058108;28;20049;-84
2022/01/06 03:52:45;;;;;;;18.92;5.10;;;;;;;5.45;80.39;100184.81;5058187;28;20056;-83
2022/01/06 03:55:14;;;;;;;12.88;4.72;;;;;;;5.49;80.40;100196.13;5057319;28;20422;-84
2022/01/06 03:57:42;;;;;;;15.68;4.88;;;;;;;5.60;80.47;100197.69;5057987;28;20064;-84
2022/01/06 04:00:11;;;;;;;15.50;4.40;;;;;;;5.60;80.59;100205.16;5057788;28;20060;-83
2022/01/06 04:02:39;;;;;;;21.25;4.40;;;;;;;5.53;80.19;100199.97;5057997;28;20072;-84
2022/01/06 04:05:10;;;;;;;15.10;4.63;;;;;;;5.55;80.20;100197.72;5058045;28;20059;-83
2022/01/06 04:07:38;;;;;;;11.27;3.65;;;;;;;5.56;80.49;100207.66;5064201;28;20120;-84
2022/01/06 04:10:10;;;;;;;19.00;4.57;;;;;;;5.57;80.14;100214.03;5057898;28;20053;-83
2022/01/06 04:12:38;;;;;;;16.35;4.32;;;;;;;5.55;80.51;100205.19;5058736;28;20056;-83
2022/01/06 04:15:11;;;;;;;19.67;4.00;;;;;;;5.44;80.12;100216.31;5058145;28;20494;-83
2022/01/06 04:17:39;;;;;;;19.35;4.38;;;;;;;5.41;80.53;100211.34;5058115;28;20049;-82
2022/01/06 04:20:09;;;;;;;18.30;4.47;;;;;;;5.27;80.11;100215.84;5057347;28;20053;-83
2022/01/06 04:22:37;;;;;;;17.13;4.13;;;;;;;5.20;80.07;100216.19;5057423;28;20052;-83
2022/01/06 04:25:07;;;;;;;18.80;4.82;;;;;;;5.13;80.10;100218.44;5057119;28;20076;-82
2022/01/06 04:27:34;;;;;;;15.75;4.95;;;;;;;5.08;80.23;100226.72;5059491;28;20414;-83
2022/01/06 04:30:02;;;;;;;16.10;4.07;;;;;;;5.05;80.60;100224.53;5056754;28;20053;-83
2022/01/06 04:32:29;;;;;;;14.07;4.10;;;;;;;5.06;80.49;100231.72;5059699;28;20044;-84
2022/01/06 04:34:58;;;;;;;17.40;4.25;;;;;;;5.03;80.57;100243.31;5060076;28;20053;-83
2022/01/06 04:37:28;;;;;;;17.17;4.63;;;;;;;4.97;80.36;100245.28;5060669;28;20067;-83
2022/01/06 04:39:56;;;;;;;18.52;4.32;;;;;;;5.01;80.67;100246.38;5060635;28;20049;-83
2022/01/06 04:42:23;;;;;;;17.00;4.53;;;;;;;5.00;80.37;100250.25;5060979;28;20512;-83
2022/01/06 04:44:50;;;;;;;19.98;4.65;;;;;;;5.05;80.45;100252.16;5060957;28;20061;-84
2022/01/06 04:47:18;;;;;;;14.23;4.40;;;;;;;5.08;80.43;100257.94;5060515;28;20148;-84
2022/01/06 04:49:45;;;;;;;20.30;4.82;;;;;;;4.96;79.72;100251.91;5059436;28;20407;-83
2022/01/06 04:52:13;;;;;;;21.60;4.40;;;;;;;4.96;79.68;100253.88;5055667;28;20057;-83
2022/01/06 04:54:42;;;;;;;25.17;5.90;;;;;;;4.74;79.12;100256.97;5059761;28;20604;-84
2022/01/06 04:57:09;;;;;;;18.30;5.13;;;;;;;4.76;79.71;100263.03;5060026;28;20048;-84
2022/01/06 04:59:37;;;;;;;19.38;4.68;;;;;;;4.73;80.18;100274.63;5060569;28;20068;-84
2022/01/06 05:02:05;;;;;;;15.95;4.10;;;;;;;4.68;80.13;100275.44;5058443;28;20060;-84
2022/01/06 05:04:32;;;;;;;19.38;4.60;;;;;;;4.62;80.38;100277.41;5058741;28;20413;-85
2022/01/06 05:06:59;;;;;;;17.15;4.60;;;;;;;4.53;80.30;100278.25;5060671;28;20045;-85
2022/01/06 05:09:27;;;;;;;19.67;5.60;;;;;;;4.51;81.00;100288.75;5061003;28;20064;-84
2022/01/06 05:11:56;;;;;;;15.50;5.22;;;;;;;4.52;81.07;100290.41;5060713;28;20055;-84
2022/01/06 05:14:23;;;;;;;21.65;5.28;;;;;;;4.48;81.06;100285.44;5060358;28;20136;-84
2022/01/06 05:16:50;;;;;;;20.75;5.15;;;;;;;4.50;81.42;100284.34;5060542;28;20049;-84
2022/01/06 05:19:18;;;;;;;17.98;4.15;;;;;;;4.48;81.16;100290.94;5059431;28;20045;-84
2022/01/06 05:21:46;;;;;;;21.08;5.32;;;;;;;4.55;81.18;100292.59;5060261;28;20057;-84
2022/01/06 05:24:15;;;;;;;16.95;5.25;;;;;;;4.58;81.41;100292.06;5060768;28;20052;-84
2022/01/06 05:26:45;;;;;;;20.90;5.38;;;;;;;4.52;80.95;100293.16;5059911;28;20067;-84
2022/01/06 05:29:14;;;;;;;20.70;4.90;;;;;;;4.47;80.83;100296.75;5059827;28;20057;-84
2022/01/06 05:31:42;;;;;;;16.40;4.47;;;;;;;4.46;80.67;100292.34;5060408;28;20053;-85
2022/01/06 05:34:13;;;;;;;23.02;5.35;;;;;;;4.34;80.17;100295.38;5061076;28;20478;-85
2022/01/06 05:36:40;;;;;;;25.58;6.00;;;;;;;4.37;80.55;100305.88;5061199;28;20056;-85
2022/01/06 05:39:08;;;;;;;18.65;4.65;;;;;;;4.22;80.61;100297.59;5061608;28;20051;-84
2022/01/06 05:41:36;;;;;;;19.17;5.68;;;;;;;4.01;80.50;100300.38;5059894;28;20064;-84
2022/01/06 05:44:03;;;;;;;18.50;5.32;;;;;;;3.98;80.17;100305.59;5059747;28;20064;-84
2022/01/06 05:46:32;;;;;;;20.85;4.80;;;;;;;4.02;81.08;100313.03;5059718;28;20053;-84
2022/01/06 05:49:00;;;;;;;19.92;5.85;;;;;;;3.98;81.05;100311.09;5058893;28;20049;-84
2022/01/06 05:51:27;;;;;;;23.35;6.07;;;;;;;3.88;81.18;100320.19;5059723;28;20056;-85
2022/01/06 05:53:55;;;;;;;15.70;5.78;;;;;;;3.80;80.94;100317.97;5060112;28;20053;-83
2022/01/06 05:56:22;;;;;;;16.15;5.63;;;;;;;3.75;81.26;100327.03;5059795;28;20057;-84
2022/01/06 05:58:50;;;;;;;17.73;5.82;;;;;;;3.73;81.11;100328.44;5060177;28;20052;-85
2022/01/06 06:01:17;;;;;;;15.95;5.32;;;;;;;3.76;81.33;100333.38;5060341;28;20044;-84
2022/01/06 06:03:46;;;;;;;22.35;6.65;;;;;;;3.78;81.37;100344.94;5059848;28;20123;-85
2022/01/06 06:06:13;;;;;;;24.20;5.90;;;;;;;3.74;81.57;100341.09;5059650;28;20049;-84
2022/01/06 06:08:41;;;;;;;16.60;5.00;;;;;;;3.78;81.54;100339.44;5059036;28;20045;-85
2022/01/06 06:11:09;;;;;;;16.27;5.28;;;;;;;3.71;81.58;100344.41;5059683;28;20156;-85
2022/01/06 06:13:36;;;;;;;24.60;5.80;;;;;;;3.69;81.28;100349.34;5060044;28;20052;-85
2022/01/06 06:16:04;;;;;;;14.90;6.00;;;;;;;3.72;81.28;100362.59;5060331;28;20057;-84
2022/01/06 06:18:31;;;;;;;18.42;5.95;;;;;;;3.64;81.13;100363.94;5059001;28;20135;-85
2022/01/06 06:21:00;;;;;;;16.45;6.20;;;;;;;3.63;81.62;100367.78;5059904;28;20057;-84
2022/01/06 06:23:27;;;;;;;23.98;6.50;;;;;;;3.61;81.21;100365.31;5060117;28;20049;-84
2022/01/06 06:25:55;;;;;;;16.17;5.38;;;;;;;3.64;81.28;100364.75;5060299;28;20071;-84
2022/01/06 06:28:22;;;;;;;19.98;5.55;;;;;;;3.60;81.35;100366.41;5059572;28;20049;-85
2022/01/06 06:30:49;;;;;;;17.33;6.20;;;;;;;3.55;81.23;100373.81;5060765;28;20049;-85
2022/01/06 06:33:17;;;;;;;22.95;6.97;;;;;;;3.52;81.76;100368.84;5060072;28;20053;-85
2022/01/06 06:35:45;;;;;;;18.83;5.60;;;;;;;3.42;81.67;100366.88;5052461;28;20045;-85
2022/01/06 06:38:14;;;;;;;21.55;6.30;;;;;;;3.39;81.44;100372.94;5058475;28;20049;-85
2022/01/06 06:40:41;;;;;;;17.13;6.00;;;;;;;3.40;81.85;100371.81;5059912;28;20045;-84
2022/01/06 06:43:13;;;;;;;21.15;5.97;;;;;;;3.36;81.79;100381.72;5059956;28;20048;-85
2022/01/06 06:45:40;;;;;;;20.70;6.30;;;;;;;3.31;82.25;100378.97;5060729;28;20072;-85
2022/01/06 06:48:08;;;;;;;25.63;6.75;;;;;;;3.31;82.45;100389.97;5060254;28;20049;-84
2022/01/06 06:50:36;;;;;;;21.10;6.07;;;;;;;3.18;82.85;100381.09;5061280;28;20053;-85
2022/01/06 06:53:03;;;;;;;20.00;6.65;;;;;;;3.18;82.66;100397.59;5061797;28;20060;-86
2022/01/06 06:55:32;;;;;;;17.63;6.05;;;;;;;3.12;82.47;100397.84;5063289;28;20053;-86
2022/01/06 06:58:01;;;;;;;20.92;5.95;;;;;;;3.07;82.22;100398.66;5062436;28;20053;-86
2022/01/06 07:00:29;;;;;;;21.98;6.72;;;;;;;3.00;82.28;100407.16;5062057;28;20045;-85
2022/01/06 07:02:57;;;;;;;18.63;5.88;;;;;;;3.02;82.36;100407.72;5060367;28;20056;-81
2022/01/06 07:05:24;;;;;;;21.50;6.63;;;;;;;3.02;82.10;100415.13;5058695;28;20060;-82
2022/01/06 07:07:52;;;;;;;21.05;7.40;;;;;;;3.03;82.56;100414.03;5059084;28;20049;-83
2022/01/06 07:10:19;;;;;;;20.30;6.60;;;;;;;3.01;82.36;100416.22;5058537;28;20060;-85
2022/01/06 07:12:48;;;;;;;18.88;6.32;;;;;;;3.01;82.73;100419.81;5058498;28;20056;-84
2022/01/06 07:15:17;;;;;;;21.90;7.03;;;;;;;3.06;82.48;100432.75;5059709;28;20059;-85
2022/01/06 07:17:45;;;;;;;26.15;6.40;;;;;;;3.12;83.30;100437.19;5060358;28;20056;-84
2022/01/06 07:20:13;;;;;;;19.80;6.65;;;;;;;3.13;83.03;100438.88;5060022;28;20405;-84
2022/01/06 07:22:41;;;;;;;17.73;6.18;;;;;;;3.17;82.82;100441.91;5060994;28;20049;-84
2022/01/06 07:25:09;;;;;;;20.33;6.05;;;;;;;3.24;83.33;100445.28;5060367;28;20045;-85
2022/01/06 07:27:36;;;;;;;25.02;6.20;;;;;;;3.30;83.09;100454.38;5060235;28;20048;-85
2022/01/06 07:30:07;;;;;;;20.55;6.63;;;;;;;3.43;83.12;100460.22;5072043;28;20067;-84
2022/01/06 07:32:42;;;;;;;15.95;6.63;;;;;;;3.51;83.17;100464.41;5082515;28;20049;-84
2022/01/06 07:35:10;;;;;;;21.35;7.05;;;;;;;3.54;82.92;100466.63;5063289;28;20070;-85
2022/01/06 07:37:38;;;;;;;25.02;6.70;;;;;;;3.58;83.20;100466.91;5062979;28;20052;-85
2022/01/06 07:40:07;;;;;;;19.00;6.28;;;;;;;3.60;82.86;100482.06;5062833;28;20502;-85
2022/01/06 07:42:35;;;;;;;17.40;5.25;;;;;;;3.65;82.97;100487.63;5061108;28;20051;-85
2022/01/06 07:45:05;;;;;;;18.63;5.80;;;;;;;3.65;82.29;100495.03;5061272;28;20049;-85
2022/01/06 07:47:36;;;;;;;19.48;5.97;;;;;;;3.08;83.62;100495.78;5058992;28;20045;-79
2022/01/06 07:50:10;;;;;;;18.85;5.85;;;;;;;3.28;82.88;100501.44;5058017;28;20044;-85
2022/01/06 07:52:38;;;;;;;25.10;6.78;;;;;;;3.57;81.89;100496.41;5051718;28;20593;-86
2022/01/06 07:55:06;;;;;;;23.33;7.35;;;;;;;3.62;81.31;100501.91;5050797;28;20064;-88
2022/01/06 07:57:34;;;;;;;22.92;6.45;;;;;;;3.77;81.40;100514.13;5059508;28;20053;-86
2022/01/06 08:00:01;;;;;;;20.25;6.35;;;;;;;3.78;81.12;100511.09;5060051;28;20045;-85
2022/01/06 08:02:29;;;;;;;18.52;6.35;;;;;;;3.83;80.75;100516.63;5058277;28;20049;-86
2022/01/06 08:04:58;;;;;;;17.13;5.93;;;;;;;3.88;80.67;100514.97;5058035;28;20052;-86
2022/01/06 08:07:25;;;;;;;24.10;7.00;;;;;;;3.93;80.38;100518.59;5064363;28;20048;-86
2022/01/06 08:09:56;;;;;;;19.70;6.65;;;;;;;3.55;80.31;100517.00;5064345;28;20495;-85
2022/01/06 08:12:23;;;;;;;23.20;7.07;;;;;;;3.75;80.11;100525.38;5070333;28;20060;-86
2022/01/06 08:14:50;;;;;;;19.73;7.57;;;;;;;3.81;80.28;100529.84;5078886;28;20057;-86
2022/01/06 08:17:18;;;;;;;20.35;6.80;;;;;;;3.88;80.24;100524.06;5062481;28;20052;-85
2022/01/06 08:19:47;;;;;;;17.05;6.15;;;;;;;3.79;79.56;100533.97;5060422;28;20154;-84
2022/01/06 08:22:16;;;;;;;18.85;5.78;;;;;;;3.86;80.14;100531.78;5061310;28;20049;-85
2022/01/06 08:24:43;;;;;;;21.25;6.68;;;;;;;3.93;80.11;100534.31;5062437;28;20057;-84
2022/01/06 08:27:11;;;;;;;19.83;6.22;;;;;;;4.02;80.00;100541.78;5062226;28;20048;-84
2022/01/06 08:29:39;;;;;;;19.65;5.75;;;;;;;4.11;79.73;100538.50;5064719;28;20044;-84
2022/01/06 08:32:07;;;;;;;21.52;5.75;;;;;;;4.09;79.82;100554.47;5063345;28;20088;-85
2022/01/06 08:34:35;;;;;;;22.33;7.30;;;;;;;4.14;79.19;100552.59;5065178;28;20053;-85
2022/01/06 08:37:03;;;;;;;18.30;6.13;;;;;;;4.10;79.21;100550.66;5063826;28;20053;-83
2022/01/06 08:39:32;;;;;;;25.20;6.72;;;;;;;4.37;78.45;100548.53;5061756;28;20057;-83
2022/01/06 08:42:00;;;;;;;17.60;6.65;;;;;;;5.42;77.94;100549.19;5061359;28;20075;-83
2022/01/06 08:44:28;;;;;;;17.90;5.93;;;;;;;6.40;75.57;100550.53;5060752;28;20056;-84
2022/01/06 08:46:58;;;;;;;19.40;5.93;;;;;;;7.24;72.76;100549.69;5060268;28;20059;-85
2022/01/06 08:49:26;;;;;;;13.93;5.85;;;;;;;8.13;68.82;100544.59;5064305;28;20052;-85
2022/01/06 08:51:53;;;;;;;12.75;5.38;;;;;;;8.63;65.39;100543.41;5066406;28;20378;-87
2022/01/06 08:54:20;;;;;;;15.48;4.82;;;;;;;9.83;65.92;100547.56;5065275;28;20056;-86
2022/01/06 08:56:49;;;;;;;12.43;4.75;;;;;;;10.55;62.24;100547.75;5065086;28;20528;-84
2022/01/06 08:59:16;;;;;;;15.55;4.68;;;;;;;11.19;56.42;100557.97;5060732;28;20064;-85
2022/01/06 09:01:44;;;;;;;18.88;6.20;;;;;;;11.88;55.31;100540.84;5062498;28;20064;-86
2022/01/06 09:04:11;;;;;;;13.02;5.45;;;;;;;12.10;57.63;100548.34;5062905;28;20052;-85
2022/01/06 09:06:38;;;;;;;12.82;4.40;;;;;;;13.33;57.08;100543.72;5062956;28;20061;-85
2022/01/06 09:09:06;;;;;;;12.45;4.60;;;;;;;13.66;56.05;100546.78;5061367;28;20063;-84
2022/01/06 09:11:33;;;;;;;11.88;4.70;;;;;;;13.98;54.61;100550.97;5062574;28;20049;-86
2022/01/06 09:14:02;;;;;;;13.18;4.60;;;;;;;14.33;53.12;100556.41;5062659;28;20064;-84
2022/01/06 09:16:29;;;;;;;13.37;4.23;;;;;;;14.76;50.67;100560.97;5066347;28;20049;-83
2022/01/06 09:18:57;;;;;;;12.18;4.75;;;;;;;15.36;48.82;100553.19;5063252;28;20053;-84
2022/01/06 09:21:24;;;;;;;12.02;4.85;;;;;;;16.24;48.48;100555.88;5065016;28;20053;-84
2022/01/06 09:23:53;;;;;;;13.10;5.18;;;;;;;16.58;49.50;100560.19;5065109;28;20053;-85
2022/01/06 09:26:23;;;;;;;14.10;5.03;;;;;;;16.93;47.12;100561.69;5066584;28;20044;-88
2022/01/06 09:28:51;;;;;;;16.42;5.13;;;;;;;16.99;44.03;100558.28;5064687;28;20037;-88
2022/01/06 09:31:20;;;;;;;16.58;4.85;;;;;;;16.35;41.28;100565.47;5062535;28;20405;-88
2022/01/06 09:33:47;;;;;;;12.43;4.43;;;;;;;17.56;44.00;100558.28;5061411;28;20060;-84
2022/01/06 09:36:14;;;;;;;13.18;4.22;;;;;;;17.30;43.39;100568.00;5063637;28;20049;-84
2022/01/06 09:38:45;;;;;;;15.45;5.00;;;;;;;17.70;40.48;100569.97;5062491;28;20383;-86
2022/01/06 09:41:14;;;;;;;13.40;4.53;;;;;;;17.52;43.65;100574.28;5063188;28;20052;-87
2022/01/06 09:43:43;;;;;;;14.05;4.68;;;;;;;16.67;45.86;100578.94;5061247;28;20474;-85
2022/01/06 09:46:11;;;;;;;;;;;;;;;15.29;43.13;100583.00;5061421;28;20061;-84
2022/01/06 09:48:41;;;;;;;12.18;5.10;;;;;;;14.59;48.07;100589.94;5060292;28;19921;-85
2022/01/06 09:51:10;;;;;;;14.05;4.88;;;;;;;14.20;46.84;100588.28;5061276;28;20056;-84
2022/01/06 09:53:37;;;;;;;14.07;4.55;;;;;;;12.77;49.49;100600.28;5059703;28;20099;-84
2022/01/06 09:56:06;;;;;;;23.88;6.47;;;;;;;11.99;49.42;100591.66;5059705;28;20049;-84
2022/01/06 09:58:34;;;;;;;12.35;5.38;;;;;;;11.72;51.63;100603.78;5057736;28;20048;-83
2022/01/06 10:01:01;;;;;;;21.08;7.45;;;;;;;11.70;51.94;100606.88;5059572;28;20410;-83
2022/01/06 10:03:36;;;;;;;15.60;4.95;;;;;;;11.12;52.97;100597.44;5060248;28;20379;-84
2022/01/06 10:06:13;;;;;;;13.80;4.80;;;;;;;11.62;52.45;100592.88;5061275;28;20059;-83
2022/01/06 10:08:43;;;;;;;12.48;4.43;;;;;;;11.49;50.95;100598.22;5060251;28;20044;-87
2022/01/06 10:11:12;;;;;;;16.02;5.55;;;;;;;11.64;51.99;100597.00;5060694;28;20041;-86
2022/01/06 10:13:40;;;;;;;9.27;4.30;;;;;;;10.30;54.00;100592.84;5059576;28;20060;-86
2022/01/06 10:16:21;;;;;;;13.35;4.90;;;;;;;10.52;52.28;100594.88;5065059;28;20057;-85
2022/01/06 10:19:01;;;;;;;14.48;5.15;;;;;;;10.52;54.63;100594.88;5061254;28;20053;-86
2022/01/06 10:21:37;;;;;;;12.27;5.28;;;;;;;10.57;55.37;100590.03;5061292;28;20056;-83
2022/01/06 10:24:08;;;;;;;15.75;5.03;;;;;;;10.27;55.23;100590.66;5056451;28;20382;-84
2022/01/06 10:26:38;;;;;;;15.20;5.93;;;;;;;10.85;53.09;100587.19;5060662;28;20067;-84
2022/01/06 10:29:09;;;;;;;13.30;4.78;;;;;;;13.15;49.83;100582.88;5061349;28;20505;-84
2022/01/06 10:31:39;;;;;;;13.52;5.30;;;;;;;15.26;42.70;100584.47;5062094;28;20064;-85
2022/01/06 10:34:10;;;;;;;18.13;5.68;;;;;;;16.77;41.66;100568.00;5062501;28;20044;-84
2022/01/06 10:36:39;;;;;;;11.75;5.05;;;;;;;18.09;37.93;100563.75;5063457;28;20045;-86
2022/01/06 10:39:08;;;;;;;12.93;5.72;;;;;;;19.31;36.23;100567.41;5062765;28;20045;-85
2022/01/06 10:41:37;;;;;;;11.90;5.30;;;;;;;19.46;34.61;100566.53;5061890;28;20052;-86
2022/01/06 10:44:08;;;;;;;12.17;5.33;;;;;;;20.37;33.93;100560.50;5061415;28;20467;-85
2022/01/06 10:46:38;;;;;;;12.82;6.13;;;;;;;20.88;32.16;100565.78;5059330;28;20053;-85
2022/01/06 10:49:08;;;;;;;13.93;5.22;;;;;;;21.86;29.62;100566.59;5060955;28;20057;-84
2022/01/06 10:51:41;;;;;;;14.90;6.72;;;;;;;21.34;29.88;100568.41;5060973;28;20041;-85
2022/01/06 10:54:20;;;;;;;13.95;5.05;;;;;;;21.58;30.22;100564.25;5058947;28;20057;-86
2022/01/06 10:56:59;;;;;;;14.68;6.13;;;;;;;22.62;29.74;100559.56;5053810;28;20415;-85
2022/01/06 10:59:30;;;;;;;14.02;6.13;;;;;;;22.80;27.45;100573.06;5060624;28;20118;-86
2022/01/06 11:01:58;;;;;;;12.40;5.95;;;;;;;22.96;28.16;100558.56;5055915;28;20560;-86
2022/01/06 11:04:25;;;;;;;16.25;5.80;;;;;;;22.68;27.77;100563.69;5059921;28;20053;-87
2022/01/06 11:06:54;;;;;;;12.48;6.45;;;;;;;23.35;27.16;100569.31;5059521;28;20057;-87
2022/01/06 11:09:22;;;;;;;13.38;6.93;;;;;;;24.53;26.46;100563.91;5059337;28;20045;-87
2022/01/06 11:14:35;;;;;;;12.52;6.43;;;;;;;23.61;26.04;100560.50;5061547;28;20051;-86
2022/01/06 11:17:02;;;;;;;9.98;5.75;;;;;;;24.37;25.32;100569.16;5060378;28;20045;-86
2022/01/06 11:19:30;;;;;;;12.98;5.47;;;;;;;24.50;24.61;100570.41;5060514;28;20044;-85
2022/01/06 11:22:07;;;;;;;12.65;5.88;;;;;;;24.42;24.58;100565.91;5059604;28;20052;-85
2022/01/06 11:24:35;;;;;;;13.38;6.57;;;;;;;24.41;23.80;100572.81;5059870;28;20072;-85
2022/01/06 11:27:06;;;;;;;10.43;5.90;;;;;;;25.66;23.52;100566.00;5060325;28;20389;-86
2022/01/06 11:29:36;;;;;;;14.57;6.72;;;;;;;25.02;23.58;100567.06;5060635;28;20045;-84
2022/01/06 11:32:18;;;;;;;14.07;6.88;;;;;;;21.85;26.59;100569.81;5061241;28;20497;-87
2022/01/06 11:34:46;;;;;;;15.20;6.47;;;;;;;23.99;23.84;100566.69;5062697;28;20049;-88
2022/01/06 11:37:16;;;;;;;13.30;6.95;;;;;;;24.29;24.21;100572.00;5061462;28;20045;-87
2022/01/06 11:39:44;;;;;;;12.43;7.50;;;;;;;25.62;22.52;100579.47;5060007;28;20805;-86